Hlavní strana
METAR-TAF:

METAR-TAF

Letiště :

Kuvajt, Kuvajt

zeměpisná šířka: 29-13N, zeměpisná délka: 047-59E, výška: 55 m

Aktuální stav počasí

Zpráva byla vytvořena před 59 minutami, v 18:00 UTC
Severoseverovýchodní vítr 6 kt
Teplota 26°C
Vlhkost vzduchu 32%
Tlak 1012 hPa
Viditelnost: 7000 m

METAR: OKBK 231800Z 03006KT 7000 NSC 26/08 Q1012 NOSIG

Čas: 21:59 (18:59 UTC)

Předpověď počasí

Zpráva byla vytvořena před 2 hodinami a 14 minutami, v 16:45 UTC
Předpověď platná od 23 v 18 UTC do 24 v 24 UTC
Severní vítr 8 kt s nárazy do 18 kt
Viditelnost: 6000 m
Dočasný
od 23 v 18 UTC do 23 v 21 UTC
Viditelnost: 3000 m
zákal

TAF: OKBK 231645Z 2318/2424 36008G18KT 6000 NSC TEMPO 2318/2321 3000 HZ

Stav a předpovědi počasí z více než 4 000 letišť (zprávy METAR a TAF).

Červené a žluté tečky na mapě představují dostupné meteorologické stanice.

Když kurzor umístíte na tečku, zobrazí se název stanice.

Pak kliknutím zobrazíte stav a předpověď počasí.

Chcete-li změnit mapu, kliknutím na zelené tlačítko se znaménkem +mapu přiblížíte, kliknutím na zelené tlačítko se znaménkem – mapu oddálíte a kliknutím na zelené šipky přejdete na sousední mapy.


METAR-TAF: